createdAt,value
2022-07-29T00:00:33.569Z,39.00
2022-07-29T00:01:33.551Z,39.94
2022-07-29T00:02:33.613Z,39.63
2022-07-29T00:03:33.600Z,39.33
2022-07-29T00:04:33.591Z,44.06
2022-07-29T00:05:33.669Z,39.48
2022-07-29T00:06:33.545Z,38.86
2022-07-29T00:07:33.583Z,38.90
2022-07-29T00:08:33.518Z,39.03
2022-07-29T00:09:33.502Z,39.49
2022-07-29T00:10:34.524Z,40.14
2022-07-29T00:11:33.518Z,39.98
2022-07-29T00:12:33.478Z,42.41
2022-07-29T00:13:33.470Z,43.11
2022-07-29T00:14:33.514Z,41.02
2022-07-29T00:15:33.485Z,42.21
2022-07-29T00:16:34.614Z,41.49
2022-07-29T00:17:33.496Z,43.56
2022-07-29T00:18:33.488Z,41.23
2022-07-29T00:19:33.435Z,43.57
2022-07-29T00:20:33.425Z,39.90
2022-07-29T00:21:33.438Z,41.01
2022-07-29T00:22:33.427Z,44.05
2022-07-29T00:23:36.723Z,40.12
2022-07-29T00:24:34.403Z,41.78
2022-07-29T00:25:33.933Z,40.98
2022-07-29T00:26:33.472Z,42.89
2022-07-29T00:27:33.383Z,40.60
2022-07-29T00:28:33.398Z,42.72
2022-07-29T00:29:34.653Z,40.95
2022-07-29T00:30:34.381Z,42.93
2022-07-29T00:31:33.458Z,44.77
2022-07-29T00:32:33.424Z,39.47
2022-07-29T00:33:33.350Z,41.37
2022-07-29T00:34:33.386Z,39.86
2022-07-29T00:35:33.329Z,41.05
2022-07-29T00:36:33.388Z,41.17
2022-07-29T00:37:33.317Z,40.81
2022-07-29T00:38:33.371Z,41.41
2022-07-29T00:39:33.316Z,40.81
2022-07-29T00:40:34.310Z,39.94
2022-07-29T00:41:33.329Z,39.45
2022-07-29T00:42:33.308Z,41.99
2022-07-29T00:43:33.310Z,41.55
2022-07-29T00:44:33.306Z,41.04
2022-07-29T00:45:33.267Z,40.27
2022-07-29T00:46:33.304Z,40.58
2022-07-29T00:47:33.265Z,39.43
2022-07-29T00:48:33.261Z,39.66
2022-07-29T00:49:33.272Z,39.66
2022-07-29T00:50:33.260Z,39.19
2022-07-29T00:51:33.238Z,39.42
2022-07-29T00:52:33.211Z,39.95
2022-07-29T00:53:33.282Z,40.19
2022-07-29T00:54:33.217Z,40.07
2022-07-29T00:55:33.231Z,40.09
2022-07-29T00:56:33.209Z,40.41
2022-07-29T00:57:33.202Z,40.65
2022-07-29T00:58:33.165Z,40.54
2022-07-29T00:59:35.228Z,40.28
2022-07-29T01:00:33.296Z,40.47
2022-07-29T01:01:33.497Z,40.37
2022-07-29T01:02:33.211Z,40.92
2022-07-29T01:03:33.190Z,40.43
2022-07-29T01:04:33.196Z,41.09
2022-07-29T01:05:51.559Z,40.81
2022-07-29T01:06:34.126Z,40.82
2022-07-29T01:07:33.132Z,41.37
2022-07-29T01:08:33.173Z,40.63
2022-07-29T01:09:42.049Z,40.14
2022-07-29T01:10:34.153Z,39.96
2022-07-29T01:11:33.150Z,42.82
2022-07-29T01:12:33.135Z,44.61
2022-07-29T01:13:33.092Z,41.34
2022-07-29T01:14:33.088Z,40.20
2022-07-29T01:15:33.057Z,42.81
2022-07-29T01:16:33.235Z,40.04
2022-07-29T01:17:33.072Z,40.17
2022-07-29T01:18:33.036Z,39.98
2022-07-29T01:19:33.047Z,44.55
2022-07-29T01:20:33.016Z,41.93
2022-07-29T01:21:33.063Z,41.31
2022-07-29T01:22:33.018Z,39.79
2022-07-29T01:23:33.045Z,39.82
2022-07-29T01:24:33.039Z,40.00
2022-07-29T01:25:33.010Z,41.60
2022-07-29T01:26:33.020Z,40.36
2022-07-29T01:27:33.093Z,40.97
2022-07-29T01:28:33.407Z,41.27
2022-07-29T01:29:38.981Z,40.16
2022-07-29T01:30:34.034Z,40.12
2022-07-29T01:31:33.031Z,40.12
2022-07-29T01:32:33.028Z,40.19
2022-07-29T01:33:32.964Z,40.06
2022-07-29T01:34:32.963Z,42.81
2022-07-29T01:35:33.017Z,41.85
2022-07-29T01:36:32.940Z,40.47
2022-07-29T01:37:32.918Z,41.26
2022-07-29T01:38:32.890Z,41.25
2022-07-29T01:39:33.366Z,40.64
2022-07-29T01:40:32.919Z,41.04
2022-07-29T01:41:32.894Z,43.87
2022-07-29T01:42:32.895Z,49.42
2022-07-29T01:43:32.894Z,41.30
2022-07-29T01:44:32.914Z,40.57
2022-07-29T01:45:32.894Z,40.00
2022-07-29T01:46:32.995Z,40.10
2022-07-29T01:47:32.872Z,40.28
2022-07-29T01:48:32.858Z,40.56
2022-07-29T01:49:32.870Z,40.62
2022-07-29T01:50:33.868Z,43.30
2022-07-29T01:51:32.857Z,42.11
2022-07-29T01:52:32.821Z,44.64
2022-07-29T01:53:34.770Z,40.92
2022-07-29T01:54:33.806Z,41.10
2022-07-29T01:55:32.813Z,40.63
2022-07-29T01:56:32.788Z,40.51
2022-07-29T01:57:32.819Z,40.85
2022-07-29T01:58:32.884Z,42.02
2022-07-29T01:59:32.768Z,41.11
2022-07-29T02:00:32.819Z,40.85
2022-07-29T02:01:32.828Z,40.97
2022-07-29T02:02:32.779Z,42.69
2022-07-29T02:03:32.762Z,43.09
2022-07-29T02:04:32.751Z,43.19
2022-07-29T02:05:32.770Z,41.45
2022-07-29T02:06:32.749Z,41.38
2022-07-29T02:07:32.758Z,43.83
2022-07-29T02:08:32.730Z,46.04
2022-07-29T02:09:32.709Z,41.93
2022-07-29T02:10:32.742Z,41.43
2022-07-29T02:11:32.720Z,41.81
2022-07-29T02:12:32.743Z,45.20
2022-07-29T02:13:32.722Z,43.36
2022-07-29T02:14:32.748Z,42.38
2022-07-29T02:15:32.757Z,44.69
2022-07-29T02:16:32.750Z,41.41
2022-07-29T02:17:32.682Z,42.37
2022-07-29T02:18:33.676Z,42.25
2022-07-29T02:19:32.661Z,43.53
2022-07-29T02:20:32.653Z,41.95
2022-07-29T02:21:32.632Z,42.42
2022-07-29T02:22:32.635Z,42.68
2022-07-29T02:23:32.651Z,41.99
2022-07-29T02:24:33.627Z,43.12
2022-07-29T02:25:38.117Z,46.95
2022-07-29T02:26:33.662Z,43.28
2022-07-29T02:27:32.596Z,44.28
2022-07-29T02:28:32.572Z,42.42
2022-07-29T02:29:32.594Z,42.18
2022-07-29T02:30:32.604Z,43.77
2022-07-29T02:31:32.700Z,42.59
2022-07-29T02:32:32.581Z,41.65
2022-07-29T02:33:32.582Z,41.49
2022-07-29T02:34:32.624Z,42.88
2022-07-29T02:35:34.579Z,42.10
2022-07-29T02:36:32.574Z,41.62
2022-07-29T02:37:32.541Z,43.16
2022-07-29T02:38:32.571Z,45.24
2022-07-29T02:39:32.616Z,43.55
2022-07-29T02:40:32.570Z,41.58
2022-07-29T02:41:32.543Z,41.41
2022-07-29T02:42:32.535Z,42.39
2022-07-29T02:43:32.507Z,42.79
2022-07-29T02:44:34.715Z,42.30
2022-07-29T02:45:33.508Z,43.07
2022-07-29T02:46:32.534Z,41.80
2022-07-29T02:47:42.081Z,41.76
2022-07-29T02:48:33.472Z,41.88
2022-07-29T02:49:32.492Z,43.95
2022-07-29T02:50:32.487Z,42.22
2022-07-29T02:51:43.794Z,41.43
2022-07-29T02:52:33.487Z,41.30
2022-07-29T02:53:32.460Z,41.85
2022-07-29T02:54:32.480Z,43.70
2022-07-29T02:55:32.421Z,42.25
2022-07-29T02:56:32.405Z,42.77
2022-07-29T02:57:32.433Z,42.37
2022-07-29T02:58:32.434Z,41.53
2022-07-29T02:59:32.395Z,43.08
2022-07-29T03:00:32.453Z,41.53
2022-07-29T03:01:32.426Z,46.42
2022-07-29T03:02:32.400Z,46.52
2022-07-29T03:03:32.371Z,43.83
2022-07-29T03:04:32.449Z,43.27
2022-07-29T03:05:32.386Z,42.30
2022-07-29T03:06:38.410Z,41.89
2022-07-29T03:07:33.356Z,41.28
2022-07-29T03:08:32.392Z,41.16
2022-07-29T03:09:32.360Z,41.59
2022-07-29T03:10:32.334Z,43.05
2022-07-29T03:11:46.145Z,45.15
2022-07-29T03:12:33.302Z,42.65
2022-07-29T03:13:32.342Z,46.20
2022-07-29T03:14:32.317Z,45.36
2022-07-29T03:15:32.322Z,46.33
2022-07-29T03:16:32.368Z,43.15
2022-07-29T03:17:32.322Z,45.06
2022-07-29T03:18:32.289Z,43.78
2022-07-29T03:19:32.266Z,43.64
2022-07-29T03:20:32.269Z,44.25
2022-07-29T03:21:32.240Z,45.97
2022-07-29T03:22:32.286Z,45.50
2022-07-29T03:23:35.200Z,46.01
2022-07-29T03:24:32.253Z,43.39
2022-07-29T03:25:32.240Z,43.62
2022-07-29T03:26:32.241Z,48.57
2022-07-29T03:27:32.230Z,49.69
2022-07-29T03:28:32.295Z,44.43
2022-07-29T03:29:34.070Z,53.85
2022-07-29T03:30:32.299Z,56.81
2022-07-29T03:31:33.353Z,56.40
2022-07-29T03:32:32.187Z,56.33
2022-07-29T03:33:32.241Z,56.67
2022-07-29T03:34:32.250Z,56.86
2022-07-29T03:35:32.201Z,57.04
2022-07-29T03:36:32.167Z,57.26
2022-07-29T03:37:32.176Z,57.05
2022-07-29T03:38:32.196Z,57.17
2022-07-29T03:39:32.186Z,57.35
2022-07-29T03:40:32.163Z,56.28
2022-07-29T03:41:32.176Z,48.06
2022-07-29T03:42:34.299Z,46.74
2022-07-29T03:43:33.128Z,46.42
2022-07-29T03:44:32.142Z,47.75
2022-07-29T03:45:32.114Z,48.10
2022-07-29T03:46:32.340Z,46.45
2022-07-29T03:47:49.787Z,46.41
2022-07-29T03:48:33.137Z,44.08
2022-07-29T03:49:32.138Z,46.75
2022-07-29T03:50:32.089Z,45.71
2022-07-29T03:51:33.714Z,46.42
2022-07-29T03:52:32.109Z,44.62
2022-07-29T03:53:32.073Z,42.03
2022-07-29T03:54:32.036Z,46.76
2022-07-29T03:55:32.067Z,47.19
2022-07-29T03:56:32.075Z,46.43
2022-07-29T03:57:32.050Z,45.39
2022-07-29T03:58:32.012Z,46.37
2022-07-29T03:59:32.019Z,46.06
2022-07-29T04:00:32.031Z,45.42
2022-07-29T04:01:32.109Z,45.43
2022-07-29T04:02:32.153Z,49.17
2022-07-29T04:03:32.105Z,46.82
2022-07-29T04:04:32.007Z,46.88
2022-07-29T04:05:32.019Z,44.18
2022-07-29T04:06:32.011Z,45.01
2022-07-29T04:07:32.017Z,46.70
2022-07-29T04:08:31.976Z,48.70
2022-07-29T04:09:32.034Z,48.79
2022-07-29T04:10:32.316Z,46.55
2022-07-29T04:11:32.051Z,47.95
2022-07-29T04:12:31.945Z,48.30
2022-07-29T04:13:31.959Z,48.86
2022-07-29T04:14:32.933Z,48.54
2022-07-29T04:15:32.081Z,47.64
2022-07-29T04:16:32.043Z,50.68
2022-07-29T04:17:31.907Z,50.74
2022-07-29T04:18:31.932Z,50.59
2022-07-29T04:19:32.267Z,50.17
2022-07-29T04:20:31.921Z,48.36
2022-07-29T04:21:31.940Z,49.37
2022-07-29T04:22:31.877Z,47.36
2022-07-29T04:23:31.915Z,46.19
2022-07-29T04:24:31.876Z,45.56
2022-07-29T04:25:31.893Z,46.41
2022-07-29T04:26:31.881Z,45.43
2022-07-29T04:27:31.851Z,49.86
2022-07-29T04:28:31.935Z,45.47
2022-07-29T04:29:31.822Z,45.84
2022-07-29T04:30:31.829Z,49.85
2022-07-29T04:31:31.876Z,44.72
2022-07-29T04:32:31.852Z,47.44
2022-07-29T04:33:32.878Z,46.89
2022-07-29T04:34:31.797Z,48.43
2022-07-29T04:35:38.391Z,47.96
2022-07-29T04:36:32.796Z,46.04
2022-07-29T04:37:31.773Z,45.27
2022-07-29T04:38:31.858Z,49.58
2022-07-29T04:39:31.764Z,52.58
2022-07-29T04:40:31.790Z,46.63
2022-07-29T04:41:33.382Z,50.50
2022-07-29T04:42:31.738Z,44.57
2022-07-29T04:43:36.651Z,44.45
2022-07-29T04:44:32.756Z,45.70
2022-07-29T04:45:31.736Z,46.83
2022-07-29T04:46:31.741Z,46.49
2022-07-29T04:47:31.728Z,48.56
2022-07-29T04:48:31.712Z,49.58
2022-07-29T04:49:31.796Z,47.96
2022-07-29T04:50:31.770Z,47.45
2022-07-29T04:51:31.784Z,46.03
2022-07-29T04:52:31.691Z,46.93
2022-07-29T04:53:31.663Z,49.41
2022-07-29T04:54:31.669Z,47.99
2022-07-29T04:55:31.656Z,50.51
2022-07-29T04:56:31.700Z,46.24
2022-07-29T04:57:31.665Z,45.35
2022-07-29T04:58:31.686Z,46.51
2022-07-29T04:59:31.642Z,48.97
2022-07-29T05:00:33.263Z,47.66
2022-07-29T05:01:31.725Z,52.32
2022-07-29T05:02:31.646Z,54.86
2022-07-29T05:03:31.613Z,56.04
2022-07-29T05:04:31.628Z,52.22
2022-07-29T05:05:31.597Z,47.37
2022-07-29T05:06:31.641Z,44.85
2022-07-29T05:07:31.658Z,47.87
2022-07-29T05:08:31.581Z,47.98
2022-07-29T05:09:31.595Z,46.59
2022-07-29T05:10:31.592Z,48.31
2022-07-29T05:11:31.551Z,46.16
2022-07-29T05:12:31.573Z,47.39
2022-07-29T05:13:45.801Z,49.02
2022-07-29T05:14:32.595Z,49.02
2022-07-29T05:15:31.603Z,48.54
2022-07-29T05:16:31.533Z,46.01
2022-07-29T05:17:31.549Z,47.45
2022-07-29T05:18:31.545Z,48.89
2022-07-29T05:19:31.509Z,52.67
2022-07-29T05:20:31.511Z,46.87
2022-07-29T05:21:31.519Z,47.69
2022-07-29T05:22:31.551Z,48.62
2022-07-29T05:23:31.506Z,49.35
2022-07-29T05:24:31.505Z,51.07
2022-07-29T05:25:43.069Z,48.63
2022-07-29T05:26:32.473Z,48.61
2022-07-29T05:27:31.456Z,46.57
2022-07-29T05:28:31.496Z,51.20
2022-07-29T05:29:44.268Z,48.48
2022-07-29T05:30:32.575Z,47.68
2022-07-29T05:31:31.499Z,49.74
2022-07-29T05:32:31.427Z,48.25
2022-07-29T05:33:35.488Z,49.05
2022-07-29T05:34:32.438Z,46.48
2022-07-29T05:35:31.534Z,52.26
2022-07-29T05:36:31.476Z,47.59
2022-07-29T05:37:31.392Z,47.39
2022-07-29T05:38:31.384Z,49.50
2022-07-29T05:39:47.125Z,48.21
2022-07-29T05:40:32.412Z,42.31
2022-07-29T05:41:32.292Z,50.60
2022-07-29T05:42:31.396Z,46.29
2022-07-29T05:43:31.374Z,43.77
2022-07-29T05:44:31.389Z,45.39
2022-07-29T05:45:31.425Z,46.17
2022-07-29T05:46:31.537Z,46.58
2022-07-29T05:47:31.347Z,47.39
2022-07-29T05:48:31.411Z,50.66
2022-07-29T05:49:31.371Z,49.37
2022-07-29T05:50:31.327Z,49.16
2022-07-29T05:51:31.383Z,48.96
2022-07-29T05:52:31.326Z,47.08
2022-07-29T05:53:31.334Z,47.84
2022-07-29T05:54:31.338Z,50.66
2022-07-29T05:55:31.425Z,49.79
2022-07-29T05:56:31.328Z,48.37
2022-07-29T05:57:31.425Z,48.74
2022-07-29T05:58:31.277Z,51.13
2022-07-29T05:59:31.282Z,49.10
2022-07-29T06:00:31.254Z,49.10
2022-07-29T06:01:31.332Z,46.35
2022-07-29T06:02:31.249Z,48.77
2022-07-29T06:03:31.333Z,49.06
2022-07-29T06:04:31.337Z,49.46
2022-07-29T06:05:31.220Z,46.32
2022-07-29T06:06:32.376Z,51.44
2022-07-29T06:07:31.322Z,50.71
2022-07-29T06:08:31.246Z,50.58
2022-07-29T06:09:31.293Z,54.60
2022-07-29T06:10:31.254Z,52.01
2022-07-29T06:11:31.303Z,52.57
2022-07-29T06:12:31.338Z,50.98
2022-07-29T06:13:31.175Z,52.48
2022-07-29T06:14:31.157Z,51.45
2022-07-29T06:15:31.155Z,50.78
2022-07-29T06:16:31.189Z,53.47
2022-07-29T06:17:31.168Z,52.08
2022-07-29T06:18:31.167Z,54.14
2022-07-29T06:19:31.130Z,53.62
2022-07-29T06:20:31.608Z,54.13
2022-07-29T06:21:31.129Z,52.39
2022-07-29T06:22:31.114Z,52.97
2022-07-29T06:23:31.168Z,53.71
2022-07-29T06:24:31.124Z,51.78
2022-07-29T06:25:31.082Z,52.39
2022-07-29T06:26:33.330Z,53.43
2022-07-29T06:27:31.097Z,51.78
2022-07-29T06:28:31.084Z,52.24
2022-07-29T06:29:31.105Z,54.45
2022-07-29T06:30:31.116Z,52.51
2022-07-29T06:31:31.045Z,54.62
2022-07-29T06:32:31.072Z,55.08
2022-07-29T06:33:31.036Z,53.21
2022-07-29T06:34:31.164Z,58.26
2022-07-29T06:35:41.190Z,55.36
2022-07-29T06:36:33.025Z,52.10
2022-07-29T06:37:31.035Z,54.60
2022-07-29T06:38:34.367Z,54.48
2022-07-29T06:39:33.009Z,53.03
2022-07-29T06:40:31.018Z,54.75
2022-07-29T06:41:31.043Z,54.97
2022-07-29T06:42:30.983Z,55.18
2022-07-29T06:43:31.993Z,54.98
2022-07-29T06:44:30.964Z,54.48
2022-07-29T06:45:30.963Z,55.17
2022-07-29T06:46:31.077Z,52.46
2022-07-29T06:47:30.988Z,53.75
2022-07-29T06:48:30.971Z,53.84
2022-07-29T06:49:30.954Z,51.31
2022-07-29T06:50:30.952Z,52.91
2022-07-29T06:51:30.949Z,52.33
2022-07-29T06:52:30.952Z,56.25
2022-07-29T06:53:30.900Z,56.07
2022-07-29T06:54:30.974Z,57.54
2022-07-29T06:55:30.884Z,57.80
2022-07-29T06:56:30.897Z,57.74
2022-07-29T06:57:30.959Z,57.43
2022-07-29T06:58:30.896Z,55.90
2022-07-29T06:59:35.234Z,54.39
2022-07-29T07:00:31.888Z,56.34
2022-07-29T07:01:31.585Z,53.08
2022-07-29T07:02:31.145Z,50.33
2022-07-29T07:03:30.844Z,49.85
2022-07-29T07:04:30.846Z,50.29
2022-07-29T07:05:30.844Z,50.21
2022-07-29T07:06:30.874Z,53.19
2022-07-29T07:07:30.814Z,51.23
2022-07-29T07:08:30.834Z,53.51
2022-07-29T07:09:39.841Z,51.37
2022-07-29T07:10:31.838Z,51.05
2022-07-29T07:11:30.804Z,52.56
2022-07-29T07:12:30.816Z,51.65
2022-07-29T07:13:30.804Z,54.71
2022-07-29T07:14:30.790Z,51.62
2022-07-29T07:15:39.703Z,52.91
2022-07-29T07:16:32.072Z,54.92
2022-07-29T07:17:30.853Z,51.54
2022-07-29T07:18:30.800Z,51.16
2022-07-29T07:19:30.747Z,51.51
2022-07-29T07:20:30.779Z,54.07
2022-07-29T07:21:31.099Z,52.69
2022-07-29T07:22:33.422Z,54.52
2022-07-29T07:23:30.960Z,53.21
2022-07-29T07:24:30.761Z,49.06
2022-07-29T07:25:30.932Z,49.82
2022-07-29T07:26:30.741Z,55.60
2022-07-29T07:27:30.807Z,49.54
2022-07-29T07:28:30.753Z,48.33
2022-07-29T07:29:30.700Z,49.13
2022-07-29T07:30:30.750Z,54.06
2022-07-29T07:31:30.762Z,50.42
2022-07-29T07:32:30.697Z,50.36
2022-07-29T07:33:30.684Z,51.77
2022-07-29T07:34:30.687Z,57.29
2022-07-29T07:35:30.809Z,50.82
2022-07-29T07:36:30.688Z,47.37
2022-07-29T07:37:30.634Z,48.90
2022-07-29T07:38:30.687Z,50.14
2022-07-29T07:39:30.877Z,49.72
2022-07-29T07:40:30.637Z,51.14
2022-07-29T07:41:32.341Z,50.05
2022-07-29T07:42:30.621Z,51.86
2022-07-29T07:43:31.527Z,54.76
2022-07-29T07:44:30.664Z,53.60
2022-07-29T07:45:30.665Z,49.05
2022-07-29T07:46:30.601Z,49.81
2022-07-29T07:47:30.586Z,53.21
2022-07-29T07:48:30.582Z,50.19
2022-07-29T07:49:30.784Z,55.34
2022-07-29T07:50:30.576Z,46.65
2022-07-29T07:51:30.589Z,45.73
2022-07-29T07:52:30.562Z,47.00
2022-07-29T07:53:30.570Z,47.28
2022-07-29T07:54:30.554Z,44.50
2022-07-29T07:55:42.442Z,47.33
2022-07-29T07:56:35.147Z,48.40
2022-07-29T07:57:31.529Z,46.85
2022-07-29T07:58:30.511Z,48.54
2022-07-29T07:59:30.518Z,44.79
2022-07-29T08:00:31.526Z,47.61
2022-07-29T08:01:30.527Z,50.00
2022-07-29T08:02:31.506Z,43.99
2022-07-29T08:03:30.522Z,50.13
2022-07-29T08:04:30.456Z,47.69
2022-07-29T08:05:30.500Z,50.30
2022-07-29T08:06:30.539Z,49.31
2022-07-29T08:07:30.461Z,48.07
2022-07-29T08:08:30.444Z,48.66
2022-07-29T08:09:30.759Z,47.10
2022-07-29T08:10:30.436Z,47.31
2022-07-29T08:11:30.530Z,48.08
2022-07-29T08:12:30.427Z,49.76
2022-07-29T08:13:30.406Z,48.05
2022-07-29T08:14:30.442Z,49.23
2022-07-29T08:15:30.393Z,50.34
2022-07-29T08:16:30.433Z,50.21
2022-07-29T08:17:30.514Z,48.16
2022-07-29T08:18:30.420Z,46.20
2022-07-29T08:19:30.397Z,46.01
2022-07-29T08:20:31.070Z,48.93
2022-07-29T08:21:30.397Z,56.33
2022-07-29T08:22:30.441Z,54.55
2022-07-29T08:23:47.177Z,49.30
2022-07-29T08:24:33.808Z,45.65
2022-07-29T08:25:30.383Z,48.79
2022-07-29T08:26:30.378Z,47.40
2022-07-29T08:27:44.927Z,44.84
2022-07-29T08:28:32.316Z,49.92
2022-07-29T08:29:30.344Z,52.09
2022-07-29T08:30:30.285Z,46.50
2022-07-29T08:31:30.349Z,49.80
2022-07-29T08:32:52.477Z,46.55
2022-07-29T08:33:32.326Z,46.43
2022-07-29T08:34:30.306Z,47.37
2022-07-29T08:35:35.065Z,47.58
2022-07-29T08:36:32.278Z,49.48
2022-07-29T08:37:30.258Z,49.42
2022-07-29T08:38:30.259Z,47.82
2022-07-29T08:39:30.264Z,48.92
2022-07-29T08:40:31.916Z,46.29
2022-07-29T08:41:30.251Z,47.70
2022-07-29T08:42:30.215Z,50.30
2022-07-29T08:43:30.282Z,49.69
2022-07-29T08:44:31.187Z,47.32
2022-07-29T08:45:30.257Z,46.47
2022-07-29T08:46:30.172Z,46.24
2022-07-29T08:47:30.232Z,46.61
2022-07-29T08:48:30.223Z,48.78
2022-07-29T08:49:31.497Z,46.01
2022-07-29T08:50:30.215Z,48.74
2022-07-29T08:51:30.191Z,56.33
2022-07-29T08:52:30.155Z,48.41
2022-07-29T08:53:30.193Z,45.24
2022-07-29T08:54:30.138Z,46.50
2022-07-29T08:55:30.149Z,50.31
2022-07-29T08:56:30.194Z,50.92
2022-07-29T08:57:30.234Z,50.34
2022-07-29T08:58:30.146Z,46.68
2022-07-29T08:59:30.095Z,50.33
2022-07-29T09:00:30.145Z,50.11
2022-07-29T09:01:36.393Z,50.24
2022-07-29T09:02:31.103Z,52.56
2022-07-29T09:03:30.143Z,52.99
2022-07-29T09:04:30.123Z,50.93
2022-07-29T09:05:30.169Z,44.81
2022-07-29T09:06:30.136Z,44.95
2022-07-29T09:07:34.783Z,48.10
2022-07-29T09:08:30.113Z,45.04
2022-07-29T09:09:30.045Z,47.00
2022-07-29T09:10:30.071Z,49.15
2022-07-29T09:11:30.060Z,48.23
2022-07-29T09:12:32.715Z,51.03
2022-07-29T09:13:31.272Z,48.59
2022-07-29T09:14:30.994Z,48.37
2022-07-29T09:15:30.012Z,51.07
2022-07-29T09:16:51.798Z,46.29
2022-07-29T09:17:32.048Z,48.92
2022-07-29T09:18:31.121Z,47.61
2022-07-29T09:19:29.979Z,47.04
2022-07-29T09:20:29.977Z,46.64
2022-07-29T09:21:29.992Z,46.72
2022-07-29T09:22:29.961Z,48.19
2022-07-29T09:23:30.004Z,45.22
2022-07-29T09:24:30.961Z,43.84
2022-07-29T09:25:29.960Z,50.29
2022-07-29T09:26:29.956Z,48.58
2022-07-29T09:27:29.973Z,46.90
2022-07-29T09:28:30.063Z,48.54
2022-07-29T09:29:33.310Z,47.54
2022-07-29T09:30:32.077Z,49.03
2022-07-29T09:31:29.993Z,49.66
2022-07-29T09:32:29.890Z,46.79
2022-07-29T09:33:29.922Z,48.18
2022-07-29T09:34:29.910Z,47.06
2022-07-29T09:35:29.903Z,47.60
2022-07-29T09:36:29.995Z,45.42
2022-07-29T09:37:29.866Z,50.01
2022-07-29T09:38:30.066Z,48.04
2022-07-29T09:39:29.886Z,45.14
2022-07-29T09:40:29.873Z,44.99
2022-07-29T09:41:29.969Z,44.98
2022-07-29T09:42:30.004Z,50.68
2022-07-29T09:43:29.865Z,44.58
2022-07-29T09:44:29.878Z,49.63
2022-07-29T09:45:29.889Z,47.10
2022-07-29T09:46:29.870Z,49.29
2022-07-29T09:47:29.828Z,45.86
2022-07-29T09:48:29.776Z,47.49
2022-07-29T09:49:29.876Z,48.22
2022-07-29T09:50:29.793Z,48.39
2022-07-29T09:51:38.077Z,47.46
2022-07-29T09:52:31.775Z,49.38
2022-07-29T09:53:29.750Z,47.72
2022-07-29T09:54:29.949Z,49.69
2022-07-29T09:55:29.766Z,54.15
2022-07-29T09:56:29.803Z,46.07
2022-07-29T09:57:31.115Z,47.32
2022-07-29T09:58:30.744Z,48.56
2022-07-29T09:59:30.683Z,50.27
2022-07-29T10:00:29.807Z,47.83
2022-07-29T10:01:29.917Z,49.47
2022-07-29T10:02:29.749Z,47.81
2022-07-29T10:03:29.786Z,52.31
2022-07-29T10:04:29.678Z,48.01
2022-07-29T10:05:36.803Z,47.77
2022-07-29T10:06:30.690Z,48.58
2022-07-29T10:07:29.663Z,46.01
2022-07-29T10:08:29.764Z,48.52
2022-07-29T10:09:29.650Z,51.03
2022-07-29T10:10:29.727Z,48.99
2022-07-29T10:11:35.409Z,50.66
2022-07-29T10:12:30.611Z,50.36
2022-07-29T10:13:29.643Z,50.50
2022-07-29T10:14:29.672Z,47.92
2022-07-29T10:15:29.602Z,50.04
2022-07-29T10:16:29.688Z,51.19
2022-07-29T10:17:29.582Z,52.04
2022-07-29T10:18:29.600Z,53.26
2022-07-29T10:19:29.569Z,53.99
2022-07-29T10:20:29.590Z,53.30
2022-07-29T10:21:36.076Z,54.66
2022-07-29T10:22:51.880Z,51.48
2022-07-29T10:23:46.134Z,53.33
2022-07-29T10:24:30.559Z,50.58
2022-07-29T10:25:29.599Z,50.92
2022-07-29T10:26:29.513Z,49.25
2022-07-29T10:27:29.536Z,50.96
2022-07-29T10:28:29.651Z,51.30
2022-07-29T10:29:29.497Z,51.58
2022-07-29T10:30:29.509Z,50.00
2022-07-29T10:31:29.654Z,47.95
2022-07-29T10:32:29.620Z,49.05
2022-07-29T10:33:30.562Z,47.32
2022-07-29T10:34:30.500Z,47.33
2022-07-29T10:35:29.450Z,48.53
2022-07-29T10:36:29.509Z,49.27
2022-07-29T10:37:29.461Z,48.76
2022-07-29T10:38:30.523Z,51.06
2022-07-29T10:39:41.570Z,49.13
2022-07-29T10:40:30.429Z,47.13
2022-07-29T10:41:32.291Z,49.67
2022-07-29T10:42:34.084Z,47.89
2022-07-29T10:43:29.937Z,49.34
2022-07-29T10:44:29.441Z,48.08
2022-07-29T10:45:29.377Z,49.17
2022-07-29T10:46:29.479Z,49.39
2022-07-29T10:47:29.370Z,49.36
2022-07-29T10:48:29.378Z,49.55
2022-07-29T10:49:30.679Z,46.06
2022-07-29T10:50:29.340Z,53.86
2022-07-29T10:51:29.373Z,50.94
2022-07-29T10:52:30.281Z,47.33
2022-07-29T10:53:33.747Z,47.97
2022-07-29T10:54:29.379Z,46.34
2022-07-29T10:55:29.314Z,48.64
2022-07-29T10:56:29.322Z,48.82
2022-07-29T10:57:53.673Z,48.16
2022-07-29T10:58:30.296Z,50.84
2022-07-29T10:59:35.387Z,48.91
2022-07-29T11:00:30.269Z,47.51
2022-07-29T11:01:37.267Z,50.67
2022-07-29T11:02:42.476Z,46.30
2022-07-29T11:03:31.320Z,46.87
2022-07-29T11:04:29.306Z,47.74
2022-07-29T11:05:32.049Z,47.47
2022-07-29T11:06:30.255Z,49.32
2022-07-29T11:07:45.738Z,51.41
2022-07-29T11:08:30.245Z,52.67
2022-07-29T11:09:37.404Z,50.54
2022-07-29T11:10:31.322Z,51.02
2022-07-29T11:11:29.830Z,49.61
2022-07-29T11:12:29.240Z,48.53
2022-07-29T11:13:29.244Z,47.61
2022-07-29T11:14:30.200Z,46.91
2022-07-29T11:15:31.723Z,49.15
2022-07-29T11:16:29.192Z,45.68
2022-07-29T11:17:37.577Z,45.66
2022-07-29T11:18:30.211Z,51.06
2022-07-29T11:19:30.496Z,45.60
2022-07-29T11:20:29.148Z,45.62
2022-07-29T11:21:49.056Z,46.39
2022-07-29T11:22:30.201Z,48.92
2022-07-29T11:23:33.657Z,46.46
2022-07-29T11:24:30.498Z,47.51
2022-07-29T11:25:50.402Z,45.51
2022-07-29T11:26:30.114Z,47.22
2022-07-29T11:27:29.117Z,47.50
2022-07-29T11:28:29.149Z,48.66
2022-07-29T11:29:29.081Z,52.19
2022-07-29T11:30:29.085Z,53.02
2022-07-29T11:31:29.210Z,52.94
2022-07-29T11:32:29.397Z,51.65
2022-07-29T11:33:54.138Z,46.79
2022-07-29T11:34:30.104Z,49.38
2022-07-29T11:35:38.465Z,47.62
2022-07-29T11:36:30.085Z,47.96
2022-07-29T11:37:29.081Z,45.91
2022-07-29T11:38:31.898Z,46.42
2022-07-29T11:39:36.901Z,46.81
2022-07-29T11:40:30.085Z,45.82
2022-07-29T11:41:29.029Z,50.69
2022-07-29T11:42:32.838Z,50.51
2022-07-29T11:43:30.108Z,48.68
2022-07-29T11:44:29.045Z,47.49
2022-07-29T11:45:42.082Z,48.09
2022-07-29T11:46:30.086Z,46.64
2022-07-29T11:47:29.106Z,48.89
2022-07-29T11:48:32.463Z,47.93
2022-07-29T11:50:29.994Z,46.55
2022-07-29T11:51:32.774Z,47.20
2022-07-29T11:52:28.960Z,47.03
2022-07-29T11:53:33.108Z,44.31
2022-07-29T11:54:29.003Z,46.68
2022-07-29T11:55:32.241Z,49.31
2022-07-29T11:56:28.992Z,45.10
2022-07-29T11:57:36.434Z,49.01
2022-07-29T11:58:29.906Z,49.60
2022-07-29T11:59:33.536Z,46.98
2022-07-29T12:00:29.954Z,44.51
2022-07-29T12:01:28.894Z,46.22
2022-07-29T12:02:37.112Z,47.49
2022-07-29T12:03:33.254Z,45.99
2022-07-29T12:04:28.931Z,45.13
2022-07-29T12:05:36.163Z,48.29
2022-07-29T12:06:29.919Z,46.44
2022-07-29T12:07:34.746Z,45.92
2022-07-29T12:08:29.951Z,49.01
2022-07-29T12:09:28.913Z,48.08
2022-07-29T12:10:30.552Z,45.79
2022-07-29T12:11:28.829Z,47.67
2022-07-29T12:12:28.846Z,48.41
2022-07-29T12:13:37.818Z,47.72
2022-07-29T12:14:29.863Z,48.08
2022-07-29T12:15:45.632Z,47.11
2022-07-29T12:16:29.987Z,46.89
2022-07-29T12:17:30.538Z,47.29
2022-07-29T12:18:28.794Z,47.98
2022-07-29T12:19:28.868Z,47.20
2022-07-29T12:20:28.815Z,50.57
2022-07-29T12:21:29.392Z,45.75
2022-07-29T12:22:28.809Z,48.74
2022-07-29T12:23:29.507Z,44.08
2022-07-29T12:24:29.770Z,49.11
2022-07-29T12:25:32.653Z,50.71
2022-07-29T12:26:29.818Z,49.12
2022-07-29T12:27:29.622Z,45.67
2022-07-29T12:28:28.730Z,47.34
2022-07-29T12:29:33.681Z,45.98
2022-07-29T12:30:29.727Z,48.55
2022-07-29T12:31:43.140Z,47.28
2022-07-29T12:32:29.865Z,49.18
2022-07-29T12:33:28.733Z,48.60
2022-07-29T12:34:28.723Z,47.69
2022-07-29T12:35:28.731Z,48.30
2022-07-29T12:36:28.705Z,46.93
2022-07-29T12:37:33.365Z,49.24
2022-07-29T12:38:29.705Z,48.42
2022-07-29T12:39:28.670Z,48.31
2022-07-29T12:40:28.672Z,46.77
2022-07-29T12:41:28.674Z,45.49
2022-07-29T12:42:28.892Z,47.84
2022-07-29T12:43:28.669Z,48.18
2022-07-29T12:44:28.649Z,48.93
2022-07-29T12:45:28.756Z,49.52
2022-07-29T12:46:28.722Z,57.65
2022-07-29T12:47:28.641Z,55.73
2022-07-29T12:48:28.778Z,55.23
2022-07-29T12:49:28.666Z,55.76
2022-07-29T12:50:28.725Z,55.56
2022-07-29T12:51:28.618Z,50.83
2022-07-29T12:52:28.618Z,46.38
2022-07-29T12:53:28.578Z,48.16